<?xml version='1.0' encoding='UTF-8'?><gpx version="1.1" creator="JPX - https://github.com/jenetics/jpx" xmlns="http://www.topografix.com/GPX/1/1"><trk><trkseg><trkpt lat="41.769295197387684" lon="2.9448550719041875"><ele>443.6</ele><time>2026-04-22T17:42:15.999Z</time></trkpt><trkpt lat="41.76936190562549" lon="2.944737821146635"><ele>443.2</ele><time>2026-04-22T17:42:17.999Z</time></trkpt><trkpt lat="41.76941237003038" lon="2.9446466614581377"><ele>442.80000000000007</ele><time>2026-04-22T17:42:18.999Z</time></trkpt><trkpt lat="41.76947489181261" lon="2.9445659378977824"><ele>442.40000000000003</ele><time>2026-04-22T17:42:19.999Z</time></trkpt><trkpt lat="41.76953610223137" lon="2.9444971653641665"><ele>442.0</ele><time>2026-04-22T17:42:20.999Z</time></trkpt><trkpt lat="41.76961715568385" lon="2.9444241194713023"><ele>442.0</ele><time>2026-04-22T17:42:21.999Z</time></trkpt><trkpt lat="41.76971585724034" lon="2.944347510398859"><ele>442.0</ele><time>2026-04-22T17:42:22.999Z</time></trkpt><trkpt lat="41.76981875997798" lon="2.9442783537653288"><ele>442.0</ele><time>2026-04-22T17:42:23.999Z</time></trkpt><trkpt lat="41.76992506746238" lon="2.9442004209958585"><ele>442.0</ele><time>2026-04-22T17:42:24.999Z</time></trkpt><trkpt lat="41.77001993185465" lon="2.9441083987083823"><ele>442.20000000000005</ele><time>2026-04-22T17:42:25.999Z</time></trkpt><trkpt lat="41.77011038163438" lon="2.9440124856882304"><ele>442.40000000000003</ele><time>2026-04-22T17:42:26.999Z</time></trkpt><trkpt lat="41.77019466713384" lon="2.943921069784337"><ele>442.59999999999997</ele><time>2026-04-22T17:42:27.999Z</time></trkpt><trkpt lat="41.77026012814516" lon="2.9438354609077875"><ele>442.79999999999995</ele><time>2026-04-22T17:42:28.999Z</time></trkpt><trkpt lat="41.77032415538499" lon="2.943769638316695"><ele>443.0</ele><time>2026-04-22T17:42:29.999Z</time></trkpt><trkpt lat="41.77038895159755" lon="2.9437122096744197"><ele>443.0</ele><time>2026-04-22T17:42:30.999Z</time></trkpt><trkpt lat="41.7704536585634" lon="2.943660788079351"><ele>442.99999999999994</ele><time>2026-04-22T17:42:31.999Z</time></trkpt><trkpt lat="41.77053377720814" lon="2.9435582663756668"><ele>442.99999999999994</ele><time>2026-04-22T17:42:33.999Z</time></trkpt><trkpt lat="41.77056939895233" lon="2.9434841422467932"><ele>443.0</ele><time>2026-04-22T17:42:35Z</time></trkpt><trkpt lat="41.77065387754406" lon="2.943382741016133"><ele>443.0</ele><time>2026-04-22T17:42:37Z</time></trkpt><trkpt lat="41.7706730560144" lon="2.9432567263458496"><ele>444.4</ele><time>2026-04-22T17:42:38.999Z</time></trkpt><trkpt lat="41.77066425829823" lon="2.9431661858262816"><ele>445.79999999999995</ele><time>2026-04-22T17:42:40.999Z</time></trkpt><trkpt lat="41.7705858241757" lon="2.943156515387226"><ele>447.2</ele><time>2026-04-22T17:42:41.999Z</time></trkpt><trkpt lat="41.77052331555881" lon="2.9431894067223663"><ele>448.6</ele><time>2026-04-22T17:42:43.999Z</time></trkpt><trkpt lat="41.770512109217584" lon="2.943099161960541"><ele>450.0</ele><time>2026-04-22T17:42:46Z</time></trkpt><trkpt lat="41.770792190032346" lon="2.942840916726383"><ele>450.0</ele><time>2026-04-22T17:42:47Z</time></trkpt><trkpt lat="41.77090164242744" lon="2.942772111735462"><ele>450.0</ele><time>2026-04-22T17:42:49Z</time></trkpt><trkpt lat="41.771031785980725" lon="2.9428154517649188"><ele>450.0</ele><time>2026-04-22T17:42:51Z</time></trkpt><trkpt lat="41.77111720141822" lon="2.9428540029128536"><ele>450.0</ele><time>2026-04-22T17:42:52Z</time></trkpt><trkpt lat="41.771218634396156" lon="2.942909845675753"><ele>448.3333333333333</ele><time>2026-04-22T17:42:53Z</time></trkpt><trkpt lat="41.771312891056375" lon="2.9429504251080147"><ele>446.66666666666663</ele><time>2026-04-22T17:42:54Z</time></trkpt><trkpt lat="41.77139903283561" lon="2.942983200009251"><ele>445.0</ele><time>2026-04-22T17:42:55Z</time></trkpt><trkpt lat="41.77147566203117" lon="2.943002244236816"><ele>443.3333333333333</ele><time>2026-04-22T17:42:56Z</time></trkpt><trkpt lat="41.771570999662146" lon="2.9429993593289536"><ele>441.66666666666663</ele><time>2026-04-22T17:42:57Z</time></trkpt><trkpt lat="41.77165385529933" lon="2.942994260447805"><ele>440.0</ele><time>2026-04-22T17:42:58Z</time></trkpt><trkpt lat="41.77175124680729" lon="2.9429750687252016"><ele>438.3333333333333</ele><time>2026-04-22T17:42:59Z</time></trkpt><trkpt lat="41.771858568492405" lon="2.9429436444072437"><ele>436.66666666666663</ele><time>2026-04-22T17:43:00Z</time></trkpt><trkpt lat="41.77194988424639" lon="2.9429250078149822"><ele>435.0</ele><time>2026-04-22T17:43:01Z</time></trkpt><trkpt lat="41.772037427895576" lon="2.9429317773834023"><ele>433.33333333333337</ele><time>2026-04-22T17:43:02Z</time></trkpt><trkpt lat="41.7721167277524" lon="2.942951874265207"><ele>431.6666666666667</ele><time>2026-04-22T17:43:03Z</time></trkpt><trkpt lat="41.77218448974102" lon="2.9429926784014313"><ele>430.0</ele><time>2026-04-22T17:43:04Z</time></trkpt><trkpt lat="41.77225454774277" lon="2.9430464653786506"><ele>430.00000000000006</ele><time>2026-04-22T17:43:05Z</time></trkpt><trkpt lat="41.772322779775166" lon="2.943101718057359"><ele>430.0</ele><time>2026-04-22T17:43:06Z</time></trkpt><trkpt lat="41.77239730543981" lon="2.9431635489205554"><ele>430.0</ele><time>2026-04-22T17:43:07Z</time></trkpt><trkpt lat="41.77246655750161" lon="2.943228274720322"><ele>430.0</ele><time>2026-04-22T17:43:08Z</time></trkpt><trkpt lat="41.77251869279376" lon="2.943277786934695"><ele>430.00000000000006</ele><time>2026-04-22T17:43:09Z</time></trkpt><trkpt lat="41.77258474171282" lon="2.943304659774139"><ele>430.0</ele><time>2026-04-22T17:43:10Z</time></trkpt><trkpt lat="41.77265027236594" lon="2.943306949461322"><ele>427.33333333333337</ele><time>2026-04-22T17:43:11Z</time></trkpt><trkpt lat="41.77272427768623" lon="2.9432839371022372"><ele>424.6666666666667</ele><time>2026-04-22T17:43:12Z</time></trkpt><trkpt lat="41.77279385425069" lon="2.9432476677430275"><ele>422.0</ele><time>2026-04-22T17:43:13Z</time></trkpt><trkpt lat="41.77286807890463" lon="2.9432360287290016"><ele>419.33333333333337</ele><time>2026-04-22T17:43:14Z</time></trkpt><trkpt lat="41.77294560258408" lon="2.9432341132339186"><ele>416.6666666666667</ele><time>2026-04-22T17:43:15Z</time></trkpt><trkpt lat="41.77302467069481" lon="2.943233880374845"><ele>414.0</ele><time>2026-04-22T17:43:16Z</time></trkpt><trkpt lat="41.773099627555176" lon="2.943223692984295"><ele>414.0</ele><time>2026-04-22T17:43:17Z</time></trkpt><trkpt lat="41.77316926827102" lon="2.9431970700077392"><ele>414.0</ele><time>2026-04-22T17:43:18Z</time></trkpt><trkpt lat="41.7732533251616" lon="2.943151699905424"><ele>414.0</ele><time>2026-04-22T17:43:19Z</time></trkpt><trkpt lat="41.77334576104186" lon="2.9431072024866016"><ele>414.0</ele><time>2026-04-22T17:43:20Z</time></trkpt><trkpt lat="41.77343598660865" lon="2.9430554030585583"><ele>414.0</ele><time>2026-04-22T17:43:21Z</time></trkpt><trkpt lat="41.773524934001806" lon="2.942993784488858"><ele>410.5</ele><time>2026-04-22T17:43:22Z</time></trkpt><trkpt lat="41.77359876435239" lon="2.942923492290308"><ele>407.0</ele><time>2026-04-22T17:43:23Z</time></trkpt><trkpt lat="41.773671191701325" lon="2.9428614307135113"><ele>403.5</ele><time>2026-04-22T17:43:24Z</time></trkpt><trkpt lat="41.77374580346039" lon="2.942813510848483"><ele>400.0</ele><time>2026-04-22T17:43:25Z</time></trkpt><trkpt lat="41.77381588616688" lon="2.9427849453050894"><ele>396.5</ele><time>2026-04-22T17:43:26Z</time></trkpt><trkpt lat="41.77389255351197" lon="2.9427591236068005"><ele>393.0</ele><time>2026-04-22T17:43:27Z</time></trkpt><trkpt lat="41.77396637097991" lon="2.942720003560724"><ele>393.0</ele><time>2026-04-22T17:43:28Z</time></trkpt><trkpt lat="41.774034864360104" lon="2.9426556896437006"><ele>393.0</ele><time>2026-04-22T17:43:29Z</time></trkpt><trkpt lat="41.77408765189834" lon="2.9425686088068113"><ele>393.0</ele><time>2026-04-22T17:43:30Z</time></trkpt><trkpt lat="41.77412539686289" lon="2.942461626930618"><ele>393.0</ele><time>2026-04-22T17:43:31Z</time></trkpt><trkpt lat="41.77415531529105" lon="2.9423572167745045"><ele>393.0</ele><time>2026-04-22T17:43:32Z</time></trkpt><trkpt lat="41.774185229939036" lon="2.942257196334101"><ele>393.0</ele><time>2026-04-22T17:43:33Z</time></trkpt><trkpt lat="41.77419997389327" lon="2.942167981663437"><ele>393.4</ele><time>2026-04-22T17:43:34Z</time></trkpt><trkpt lat="41.77421217363358" lon="2.9420167889085698"><ele>393.79999999999995</ele><time>2026-04-22T17:43:36Z</time></trkpt><trkpt lat="41.77425330150779" lon="2.9418900438984004"><ele>394.2</ele><time>2026-04-22T17:43:38Z</time></trkpt><trkpt lat="41.77432191768539" lon="2.9417753479753563"><ele>394.6</ele><time>2026-04-22T17:43:40Z</time></trkpt><trkpt lat="41.77442629233047" lon="2.941695942471812"><ele>395.0</ele><time>2026-04-22T17:43:42Z</time></trkpt><trkpt lat="41.77448881227615" lon="2.941677666535545"><ele>395.0</ele><time>2026-04-22T17:43:43Z</time></trkpt><trkpt lat="41.774559918055814" lon="2.94167356985038"><ele>395.0</ele><time>2026-04-22T17:43:44Z</time></trkpt><trkpt lat="41.77463630515741" lon="2.94168465930457"><ele>395.0</ele><time>2026-04-22T17:43:45Z</time></trkpt><trkpt lat="41.77470964614623" lon="2.9417081258069757"><ele>395.0</ele><time>2026-04-22T17:43:46Z</time></trkpt><trkpt lat="41.77478010325153" lon="2.941730897427723"><ele>395.0</ele><time>2026-04-22T17:43:47Z</time></trkpt><trkpt lat="41.774846690860635" lon="2.9417587632193105"><ele>395.0</ele><time>2026-04-22T17:43:48Z</time></trkpt><trkpt lat="41.77491527842395" lon="2.9417903732888613"><ele>395.0</ele><time>2026-04-22T17:43:49Z</time></trkpt><trkpt lat="41.7749835304297" lon="2.941834215649063"><ele>395.16666666666663</ele><time>2026-04-22T17:43:50Z</time></trkpt><trkpt lat="41.775059449184816" lon="2.941877081628807"><ele>395.3333333333333</ele><time>2026-04-22T17:43:51Z</time></trkpt><trkpt lat="41.77513213770043" lon="2.9419202055051645"><ele>395.5</ele><time>2026-04-22T17:43:52Z</time></trkpt><trkpt lat="41.775204389000336" lon="2.9419682050146947"><ele>395.66666666666663</ele><time>2026-04-22T17:43:53Z</time></trkpt><trkpt lat="41.77527065631537" lon="2.9420205965695256"><ele>395.8333333333333</ele><time>2026-04-22T17:43:54Z</time></trkpt><trkpt lat="41.77533513208357" lon="2.9420699013427134"><ele>396.0</ele><time>2026-04-22T17:43:55Z</time></trkpt><trkpt lat="41.77544197671469" lon="2.942200680977301"><ele>394.0</ele><time>2026-04-22T17:43:57Z</time></trkpt><trkpt lat="41.77549020481789" lon="2.9422593730937274"><ele>392.0</ele><time>2026-04-22T17:43:58Z</time></trkpt><trkpt lat="41.77558311129813" lon="2.9423328945066474"><ele>390.0</ele><time>2026-04-22T17:44:00Z</time></trkpt><trkpt lat="41.77565967574216" lon="2.9424108485849225"><ele>388.0</ele><time>2026-04-22T17:44:02Z</time></trkpt><trkpt lat="41.77569739325884" lon="2.9424838087858625"><ele>386.0</ele><time>2026-04-22T17:44:03.999Z</time></trkpt><trkpt lat="41.775732343333736" lon="2.9425823255722943"><ele>384.0</ele><time>2026-04-22T17:44:05.999Z</time></trkpt><trkpt lat="41.77577537127391" lon="2.9427164389754634"><ele>382.6</ele><time>2026-04-22T17:44:07.999Z</time></trkpt><trkpt lat="41.77589334860023" lon="2.9428221545962567"><ele>381.2</ele><time>2026-04-22T17:44:09.999Z</time></trkpt><trkpt lat="41.77596520090435" lon="2.942881004992505"><ele>379.8</ele><time>2026-04-22T17:44:10.999Z</time></trkpt><trkpt lat="41.7760274615265" lon="2.9429396401005956"><ele>378.40000000000003</ele><time>2026-04-22T17:44:11.999Z</time></trkpt><trkpt lat="41.7760872558808" lon="2.9430107911742347"><ele>377.0</ele><time>2026-04-22T17:44:12.999Z</time></trkpt><trkpt lat="41.776143062112425" lon="2.9430960812594353"><ele>376.6666666666667</ele><time>2026-04-22T17:44:13.999Z</time></trkpt><trkpt lat="41.77619016367046" lon="2.9431755119118344"><ele>376.33333333333337</ele><time>2026-04-22T17:44:14.999Z</time></trkpt><trkpt lat="41.77623176098892" lon="2.9432652259975467"><ele>376.0</ele><time>2026-04-22T17:44:15.999Z</time></trkpt><trkpt lat="41.77627455603227" lon="2.9433740052166995"><ele>375.6666666666667</ele><time>2026-04-22T17:44:16.999Z</time></trkpt><trkpt lat="41.776320183215105" lon="2.943471375284913"><ele>375.3333333333333</ele><time>2026-04-22T17:44:17.999Z</time></trkpt><trkpt lat="41.776363979630986" lon="2.943570945187475"><ele>375.0</ele><time>2026-04-22T17:44:18.999Z</time></trkpt><trkpt lat="41.776396311476226" lon="2.9436652848915936"><ele>373.6666666666667</ele><time>2026-04-22T17:44:19.999Z</time></trkpt><trkpt lat="41.77642473937792" lon="2.9437520581504306"><ele>372.3333333333333</ele><time>2026-04-22T17:44:20.999Z</time></trkpt><trkpt lat="41.776457494468794" lon="2.943831229225641"><ele>371.0</ele><time>2026-04-22T17:44:21.999Z</time></trkpt><trkpt lat="41.77649788721828" lon="2.9439172440900103"><ele>369.66666666666663</ele><time>2026-04-22T17:44:22.999Z</time></trkpt><trkpt lat="41.77653617427868" lon="2.9439973170841407"><ele>368.3333333333333</ele><time>2026-04-22T17:44:23.999Z</time></trkpt><trkpt lat="41.7765960048193" lon="2.9441382826284967"><ele>367.0</ele><time>2026-04-22T17:44:25.999Z</time></trkpt><trkpt lat="41.77664102563996" lon="2.9442383661290306"><ele>364.16666666666663</ele><time>2026-04-22T17:44:27.999Z</time></trkpt><trkpt lat="41.77668608727034" lon="2.9443364061855735"><ele>361.3333333333333</ele><time>2026-04-22T17:44:29.999Z</time></trkpt><trkpt lat="41.77669293659595" lon="2.944430888727594"><ele>358.5</ele><time>2026-04-22T17:44:31.999Z</time></trkpt><trkpt lat="41.776652681715596" lon="2.9445146490169196"><ele>355.6666666666667</ele><time>2026-04-22T17:44:33.999Z</time></trkpt><trkpt lat="41.77658022462839" lon="2.944534399142552"><ele>352.83333333333337</ele><time>2026-04-22T17:44:35.999Z</time></trkpt><trkpt lat="41.77652375263692" lon="2.944481604538141"><ele>350.0</ele><time>2026-04-22T17:44:37.999Z</time></trkpt><trkpt lat="41.776425654044246" lon="2.944416626791618"><ele>350.0</ele><time>2026-04-22T17:44:39.999Z</time></trkpt><trkpt lat="41.77631693318907" lon="2.944360684552589"><ele>350.0</ele><time>2026-04-22T17:44:42Z</time></trkpt><trkpt lat="41.77623229481039" lon="2.9442736256233277"><ele>350.0</ele><time>2026-04-22T17:44:43.999Z</time></trkpt><trkpt lat="41.776173931567705" lon="2.9442028107766927"><ele>350.0</ele><time>2026-04-22T17:44:45.999Z</time></trkpt><trkpt lat="41.776105001119824" lon="2.9442825628503506"><ele>350.0</ele><time>2026-04-22T17:44:48.999Z</time></trkpt><trkpt lat="41.77611494312484" lon="2.9443919929243054"><ele>350.0</ele><time>2026-04-22T17:44:50.999Z</time></trkpt><trkpt lat="41.77611774261494" lon="2.944496942690163"><ele>350.0</ele><time>2026-04-22T17:44:52.999Z</time></trkpt><trkpt lat="41.77609518422443" lon="2.9446247286608713"><ele>350.0</ele><time>2026-04-22T17:44:54.999Z</time></trkpt><trkpt lat="41.77608156463232" lon="2.9447213782013537"><ele>350.0</ele><time>2026-04-22T17:44:56.999Z</time></trkpt><trkpt lat="41.776084642949456" lon="2.944834869360356"><ele>350.0</ele><time>2026-04-22T17:44:59.999Z</time></trkpt><trkpt lat="41.776089792355144" lon="2.944920408057967"><ele>350.0</ele><time>2026-04-22T17:45:01.999Z</time></trkpt><trkpt lat="41.77609367024374" lon="2.9450070832751694"><ele>345.0</ele><time>2026-04-22T17:45:03.999Z</time></trkpt><trkpt lat="41.77608931541867" lon="2.9451489761735674"><ele>340.0</ele><time>2026-04-22T17:45:06.999Z</time></trkpt><trkpt lat="41.77611933941128" lon="2.9452388035234516"><ele>335.0</ele><time>2026-04-22T17:45:08.999Z</time></trkpt><trkpt lat="41.77616282314469" lon="2.945313239635054"><ele>330.0</ele><time>2026-04-22T17:45:10.999Z</time></trkpt><trkpt lat="41.7762446854721" lon="2.9453892862044184"><ele>325.0</ele><time>2026-04-22T17:45:12.999Z</time></trkpt><trkpt lat="41.776342625008084" lon="2.9454551653291734"><ele>325.0</ele><time>2026-04-22T17:45:14.999Z</time></trkpt><trkpt lat="41.776442986590794" lon="2.9455255975283756"><ele>325.0</ele><time>2026-04-22T17:45:16.999Z</time></trkpt><trkpt lat="41.77655243992595" lon="2.9456027911758222"><ele>325.0</ele><time>2026-04-22T17:45:18.999Z</time></trkpt><trkpt lat="41.77664789643931" lon="2.9456895913167527"><ele>325.0</ele><time>2026-04-22T17:45:20.999Z</time></trkpt><trkpt lat="41.776704092413674" lon="2.9457323428535553"><ele>325.0</ele><time>2026-04-22T17:45:21.999Z</time></trkpt><trkpt lat="41.77675871234084" lon="2.945783925591429"><ele>321.0</ele><time>2026-04-22T17:45:22.999Z</time></trkpt><trkpt lat="41.77685342889577" lon="2.9458797689722993"><ele>317.0</ele><time>2026-04-22T17:45:24.999Z</time></trkpt><trkpt lat="41.776931607108146" lon="2.945997371752724"><ele>313.0</ele><time>2026-04-22T17:45:26.999Z</time></trkpt><trkpt lat="41.77699556216993" lon="2.9460879764775623"><ele>309.0</ele><time>2026-04-22T17:45:28.999Z</time></trkpt><trkpt lat="41.77707711596964" lon="2.9461524098439233"><ele>305.0</ele><time>2026-04-22T17:45:30.999Z</time></trkpt><trkpt lat="41.77717062918024" lon="2.946175826820634"><ele>305.0</ele><time>2026-04-22T17:45:32.999Z</time></trkpt><trkpt lat="41.77727354803735" lon="2.9462054068992685"><ele>305.0</ele><time>2026-04-22T17:45:34.999Z</time></trkpt><trkpt lat="41.777364278351605" lon="2.946253119231475"><ele>305.0</ele><time>2026-04-22T17:45:36.999Z</time></trkpt><trkpt lat="41.777440840963884" lon="2.9463002759461334"><ele>305.0</ele><time>2026-04-22T17:45:38.999Z</time></trkpt><trkpt lat="41.777503182972424" lon="2.9463562889402763"><ele>305.0</ele><time>2026-04-22T17:45:40.999Z</time></trkpt><trkpt lat="41.77755333982972" lon="2.9464197965548617"><ele>305.0</ele><time>2026-04-22T17:45:42.999Z</time></trkpt><trkpt lat="41.77761407178547" lon="2.946475567351971"><ele>305.0</ele><time>2026-04-22T17:45:44.999Z</time></trkpt><trkpt lat="41.77767897537556" lon="2.9465455781298093"><ele>305.0</ele><time>2026-04-22T17:45:46.999Z</time></trkpt><trkpt lat="41.777716824472854" lon="2.946648594183222"><ele>305.0</ele><time>2026-04-22T17:45:48.999Z</time></trkpt><trkpt lat="41.77773456105896" lon="2.946770440282942"><ele>305.0</ele><time>2026-04-22T17:45:50.999Z</time></trkpt><trkpt lat="41.777721507394986" lon="2.9468854657461683"><ele>305.0</ele><time>2026-04-22T17:45:52.999Z</time></trkpt><trkpt lat="41.777715449034595" lon="2.9470065980262286"><ele>305.0</ele><time>2026-04-22T17:45:54.999Z</time></trkpt><trkpt lat="41.77771559355474" lon="2.94711910180433"><ele>300.4</ele><time>2026-04-22T17:45:56.999Z</time></trkpt><trkpt lat="41.77772337744997" lon="2.9472089469889466"><ele>295.8</ele><time>2026-04-22T17:45:58.999Z</time></trkpt><trkpt lat="41.77777572336375" lon="2.9472947590502057"><ele>291.2</ele><time>2026-04-22T17:46:00.999Z</time></trkpt><trkpt lat="41.77786783322631" lon="2.9473550547957026"><ele>286.6</ele><time>2026-04-22T17:46:02.999Z</time></trkpt><trkpt lat="41.77796488112482" lon="2.947414059101912"><ele>282.0</ele><time>2026-04-22T17:46:04.999Z</time></trkpt><trkpt lat="41.778066468520656" lon="2.947457760988282"><ele>282.0</ele><time>2026-04-22T17:46:06.999Z</time></trkpt><trkpt lat="41.778160067477415" lon="2.9474853626625075"><ele>282.0</ele><time>2026-04-22T17:46:08.999Z</time></trkpt><trkpt lat="41.778251974329855" lon="2.9475162684189056"><ele>282.0</ele><time>2026-04-22T17:46:10.999Z</time></trkpt><trkpt lat="41.77834665822642" lon="2.947563063779931"><ele>282.0</ele><time>2026-04-22T17:46:12.999Z</time></trkpt><trkpt lat="41.778437548784595" lon="2.9476183149875563"><ele>282.0</ele><time>2026-04-22T17:46:14.999Z</time></trkpt><trkpt lat="41.77852797320321" lon="2.9476748444921563"><ele>277.5</ele><time>2026-04-22T17:46:16.999Z</time></trkpt><trkpt lat="41.77861438448245" lon="2.947725830679482"><ele>273.0</ele><time>2026-04-22T17:46:18.999Z</time></trkpt><trkpt lat="41.77869504803327" lon="2.9477893061578824"><ele>268.5</ele><time>2026-04-22T17:46:20.999Z</time></trkpt><trkpt lat="41.77877544258322" lon="2.9478542997825747"><ele>264.0</ele><time>2026-04-22T17:46:22.999Z</time></trkpt><trkpt lat="41.77883945856348" lon="2.9479176700161385"><ele>259.5</ele><time>2026-04-22T17:46:24.999Z</time></trkpt><trkpt lat="41.778910602311754" lon="2.947967461536745"><ele>255.0</ele><time>2026-04-22T17:46:26.999Z</time></trkpt><trkpt lat="41.77899694227903" lon="2.9480382943123753"><ele>255.0</ele><time>2026-04-22T17:46:28.999Z</time></trkpt><trkpt lat="41.779086114215715" lon="2.948127633730629"><ele>255.0</ele><time>2026-04-22T17:46:30.999Z</time></trkpt><trkpt lat="41.77917765068786" lon="2.9482090398164984"><ele>255.0</ele><time>2026-04-22T17:46:32.999Z</time></trkpt><trkpt lat="41.77927037128908" lon="2.9482895720200752"><ele>255.0</ele><time>2026-04-22T17:46:34.999Z</time></trkpt><trkpt lat="41.77934547633229" lon="2.948349554880941"><ele>255.0</ele><time>2026-04-22T17:46:36.999Z</time></trkpt><trkpt lat="41.77940740349894" lon="2.9484107458983018"><ele>251.33333333333334</ele><time>2026-04-22T17:46:38.999Z</time></trkpt><trkpt lat="41.77946459555063" lon="2.948508950587873"><ele>247.66666666666669</ele><time>2026-04-22T17:46:41.999Z</time></trkpt><trkpt lat="41.77951092461798" lon="2.948598596445035"><ele>244.0</ele><time>2026-04-22T17:46:43.999Z</time></trkpt><trkpt lat="41.77953705574833" lon="2.9486796233487436"><ele>240.33333333333334</ele><time>2026-04-22T17:46:45.999Z</time></trkpt><trkpt lat="41.7795682472105" lon="2.94876146470736"><ele>236.66666666666669</ele><time>2026-04-22T17:46:47.999Z</time></trkpt><trkpt lat="41.779628562535045" lon="2.9488692177782596"><ele>233.0</ele><time>2026-04-22T17:46:49.999Z</time></trkpt><trkpt lat="41.77970274621225" lon="2.9489571398293153"><ele>233.00000000000003</ele><time>2026-04-22T17:46:51.999Z</time></trkpt><trkpt lat="41.779789612164926" lon="2.949044291790371"><ele>233.0</ele><time>2026-04-22T17:46:53.999Z</time></trkpt><trkpt lat="41.77988363120107" lon="2.9491250950921453"><ele>233.0</ele><time>2026-04-22T17:46:55.999Z</time></trkpt><trkpt lat="41.779940845125964" lon="2.9491659482735173"><ele>233.0</ele><time>2026-04-22T17:46:56.999Z</time></trkpt><trkpt lat="41.78000478893131" lon="2.949214782724178"><ele>233.00000000000003</ele><time>2026-04-22T17:46:58.999Z</time></trkpt><trkpt lat="41.780019428276425" lon="2.9493072905424635"><ele>233.0</ele><time>2026-04-22T17:47:01.999Z</time></trkpt><trkpt lat="41.78005259964926" lon="2.949418647295912"><ele>229.60000000000002</ele><time>2026-04-22T17:47:03.999Z</time></trkpt><trkpt lat="41.7801398961975" lon="2.9495235743136017"><ele>226.20000000000002</ele><time>2026-04-22T17:47:05.999Z</time></trkpt><trkpt lat="41.780247573987886" lon="2.9496009704412907"><ele>222.8</ele><time>2026-04-22T17:47:07.999Z</time></trkpt><trkpt lat="41.78030701287229" lon="2.949633969781606"><ele>219.4</ele><time>2026-04-22T17:47:08.999Z</time></trkpt><trkpt lat="41.780419969461974" lon="2.949682408166675"><ele>216.0</ele><time>2026-04-22T17:47:10.999Z</time></trkpt><trkpt lat="41.78051757100717" lon="2.9497465192612204"><ele>214.25</ele><time>2026-04-22T17:47:12.999Z</time></trkpt><trkpt lat="41.78061389566964" lon="2.949827649626294"><ele>212.5</ele><time>2026-04-22T17:47:14.999Z</time></trkpt><trkpt lat="41.78071883094842" lon="2.949911979960182"><ele>210.75</ele><time>2026-04-22T17:47:16.999Z</time></trkpt><trkpt lat="41.78083789776599" lon="2.9499383290198824"><ele>209.0</ele><time>2026-04-22T17:47:18.999Z</time></trkpt><trkpt lat="41.780950259268295" lon="2.9499208553262157"><ele>206.2</ele><time>2026-04-22T17:47:20.999Z</time></trkpt><trkpt lat="41.78102274083445" lon="2.949845945386406"><ele>203.39999999999998</ele><time>2026-04-22T17:47:22.999Z</time></trkpt><trkpt lat="41.78105047928575" lon="2.9497071701241464"><ele>200.6</ele><time>2026-04-22T17:47:24.999Z</time></trkpt><trkpt lat="41.78105633403079" lon="2.9495437544389342"><ele>197.8</ele><time>2026-04-22T17:47:26.999Z</time></trkpt><trkpt lat="41.781049285644556" lon="2.9494263711834705"><ele>195.0</ele><time>2026-04-22T17:47:27.999Z</time></trkpt><trkpt lat="41.781026431622784" lon="2.9493241823901686"><ele>198.6</ele><time>2026-04-22T17:47:28.999Z</time></trkpt><trkpt lat="41.78099241122645" lon="2.9492030008869574"><ele>202.2</ele><time>2026-04-22T17:47:29.999Z</time></trkpt><trkpt lat="41.780947899788146" lon="2.949078830238528"><ele>205.8</ele><time>2026-04-22T17:47:30.999Z</time></trkpt><trkpt lat="41.78090081281452" lon="2.9489595036773064"><ele>209.4</ele><time>2026-04-22T17:47:31.999Z</time></trkpt><trkpt lat="41.7808604463042" lon="2.948868999413878"><ele>213.0</ele><time>2026-04-22T17:47:32.999Z</time></trkpt><trkpt lat="41.78077279453679" lon="2.948740698336449"><ele>213.0</ele><time>2026-04-22T17:47:34.999Z</time></trkpt><trkpt lat="41.7807098588953" lon="2.9486932681688045"><ele>213.0</ele><time>2026-04-22T17:47:35.999Z</time></trkpt><trkpt lat="41.7806079947767" lon="2.9486220826953473"><ele>213.0</ele><time>2026-04-22T17:47:37.999Z</time></trkpt><trkpt lat="41.78059329583875" lon="2.9485052888103453"><ele>213.0</ele><time>2026-04-22T17:47:39.999Z</time></trkpt><trkpt lat="41.78060402152431" lon="2.948418288982429"><ele>213.0</ele><time>2026-04-22T17:47:40.999Z</time></trkpt><trkpt lat="41.78064049511063" lon="2.948330551931468"><ele>213.0</ele><time>2026-04-22T17:47:41.999Z</time></trkpt><trkpt lat="41.780667492540076" lon="2.948196957310453"><ele>212.5</ele><time>2026-04-22T17:47:43.999Z</time></trkpt><trkpt lat="41.780634120896885" lon="2.9481235301212023"><ele>212.0</ele><time>2026-04-22T17:47:44.999Z</time></trkpt><trkpt lat="41.78058502110199" lon="2.9480450565422744"><ele>211.5</ele><time>2026-04-22T17:47:45.999Z</time></trkpt><trkpt lat="41.78055217587777" lon="2.9479538638361995"><ele>211.0</ele><time>2026-04-22T17:47:46.999Z</time></trkpt><trkpt lat="41.78057765381179" lon="2.9478311706169857"><ele>210.5</ele><time>2026-04-22T17:47:48.999Z</time></trkpt><trkpt lat="41.78069265755846" lon="2.9477828347048582"><ele>210.0</ele><time>2026-04-22T17:47:50.999Z</time></trkpt><trkpt lat="41.78077419218939" lon="2.9477528298667064"><ele>210.0</ele><time>2026-04-22T17:47:51.999Z</time></trkpt><trkpt lat="41.78085947055382" lon="2.9477211631226257"><ele>210.0</ele><time>2026-04-22T17:47:52.999Z</time></trkpt><trkpt lat="41.7809441355421" lon="2.9476842501927916"><ele>210.0</ele><time>2026-04-22T17:47:53.999Z</time></trkpt><trkpt lat="41.781024226321684" lon="2.947643243633424"><ele>210.0</ele><time>2026-04-22T17:47:54.999Z</time></trkpt><trkpt lat="41.78109716427527" lon="2.9476040992725636"><ele>210.0</ele><time>2026-04-22T17:47:55.999Z</time></trkpt><trkpt lat="41.78116397517388" lon="2.9475674990087373"><ele>210.0</ele><time>2026-04-22T17:47:56.999Z</time></trkpt><trkpt lat="41.78126708204107" lon="2.947489440226152"><ele>207.16666666666666</ele><time>2026-04-22T17:47:58.999Z</time></trkpt><trkpt lat="41.78132577233716" lon="2.947372822030585"><ele>204.33333333333331</ele><time>2026-04-22T17:48:00.999Z</time></trkpt><trkpt lat="41.78131965623976" lon="2.947235905644331"><ele>201.5</ele><time>2026-04-22T17:48:02.999Z</time></trkpt><trkpt lat="41.781300800630156" lon="2.9471394708151464"><ele>198.66666666666666</ele><time>2026-04-22T17:48:03.999Z</time></trkpt><trkpt lat="41.781282299311265" lon="2.947024646906691"><ele>195.83333333333331</ele><time>2026-04-22T17:48:04.999Z</time></trkpt><trkpt lat="41.781276930749094" lon="2.946921998402164"><ele>193.0</ele><time>2026-04-22T17:48:05.999Z</time></trkpt><trkpt lat="41.781284695505875" lon="2.9468232594049635"><ele>193.0</ele><time>2026-04-22T17:48:06.999Z</time></trkpt><trkpt lat="41.781306964982406" lon="2.9467422618104355"><ele>193.0</ele><time>2026-04-22T17:48:07.999Z</time></trkpt><trkpt lat="41.781396553296425" lon="2.9466956481941935"><ele>193.0</ele><time>2026-04-22T17:48:09.999Z</time></trkpt><trkpt lat="41.78152296288716" lon="2.9467331348076127"><ele>193.0</ele><time>2026-04-22T17:48:11.999Z</time></trkpt><trkpt lat="41.78164495540356" lon="2.9467867162013994"><ele>193.0</ele><time>2026-04-22T17:48:13.999Z</time></trkpt><trkpt lat="41.781701986013815" lon="2.9467400757797932"><ele>192.33333333333331</ele><time>2026-04-22T17:48:15.999Z</time></trkpt><trkpt lat="41.78174637084018" lon="2.9466382025504"><ele>191.66666666666666</ele><time>2026-04-22T17:48:26.999Z</time></trkpt><trkpt lat="41.781778363634686" lon="2.9465477765684107"><ele>191.0</ele><time>2026-04-22T17:48:27.999Z</time></trkpt><trkpt lat="41.78181691521179" lon="2.9464474448384355"><ele>190.33333333333331</ele><time>2026-04-22T17:48:28.999Z</time></trkpt><trkpt lat="41.781866410808895" lon="2.946351363285663"><ele>189.66666666666666</ele><time>2026-04-22T17:48:29.999Z</time></trkpt><trkpt lat="41.78190983996111" lon="2.946279313691061"><ele>189.0</ele><time>2026-04-22T17:48:30.999Z</time></trkpt><trkpt lat="41.781945531958726" lon="2.946205881157261"><ele>189.0</ele><time>2026-04-22T17:48:31.999Z</time></trkpt><trkpt lat="41.78197030831184" lon="2.94608798767098"><ele>189.0</ele><time>2026-04-22T17:48:33.999Z</time></trkpt><trkpt lat="41.78191354274633" lon="2.94592841945202"><ele>189.0</ele><time>2026-04-22T17:48:36Z</time></trkpt><trkpt lat="41.78187789907893" lon="2.945823828376502"><ele>189.0</ele><time>2026-04-22T17:48:37Z</time></trkpt><trkpt lat="41.78186235571767" lon="2.9457188466585937"><ele>189.0</ele><time>2026-04-22T17:48:38Z</time></trkpt><trkpt lat="41.7818642499649" lon="2.945616936752086"><ele>189.5</ele><time>2026-04-22T17:48:39Z</time></trkpt><trkpt lat="41.781873400672126" lon="2.945500921427897"><ele>190.0</ele><time>2026-04-22T17:48:40Z</time></trkpt><trkpt lat="41.7819073194521" lon="2.9454010340075647"><ele>190.5</ele><time>2026-04-22T17:48:41Z</time></trkpt><trkpt lat="41.78197006477621" lon="2.9453209961927573"><ele>191.0</ele><time>2026-04-22T17:48:42Z</time></trkpt><trkpt lat="41.782051624761884" lon="2.9452645531938066"><ele>191.5</ele><time>2026-04-22T17:48:43Z</time></trkpt><trkpt lat="41.782130250433795" lon="2.9452293840500645"><ele>192.0</ele><time>2026-04-22T17:48:44Z</time></trkpt><trkpt lat="41.782228197176906" lon="2.945149925535875"><ele>193.2</ele><time>2026-04-22T17:48:46Z</time></trkpt><trkpt lat="41.782215487936" lon="2.944984381145507"><ele>194.39999999999998</ele><time>2026-04-22T17:48:48Z</time></trkpt><trkpt lat="41.78216853695764" lon="2.9449076873633344"><ele>195.60000000000002</ele><time>2026-04-22T17:48:49Z</time></trkpt><trkpt lat="41.78209595251669" lon="2.9448160289346235"><ele>196.8</ele><time>2026-04-22T17:48:50Z</time></trkpt><trkpt lat="41.78203257762705" lon="2.9447394515174166"><ele>198.0</ele><time>2026-04-22T17:48:51Z</time></trkpt><trkpt lat="41.781968545557504" lon="2.9446976295748364"><ele>198.0</ele><time>2026-04-22T17:48:52Z</time></trkpt><trkpt lat="41.78189986396041" lon="2.9446870267580256"><ele>198.0</ele><time>2026-04-22T17:48:53Z</time></trkpt><trkpt lat="41.781807808730775" lon="2.9446954516092725"><ele>198.0</ele><time>2026-04-22T17:48:54Z</time></trkpt><trkpt lat="41.781700018226886" lon="2.9447145514285538"><ele>198.0</ele><time>2026-04-22T17:48:55Z</time></trkpt><trkpt lat="41.781599265769806" lon="2.944742336178685"><ele>198.0</ele><time>2026-04-22T17:48:56Z</time></trkpt><trkpt lat="41.781528423451135" lon="2.944777638835417"><ele>198.0</ele><time>2026-04-22T17:48:57Z</time></trkpt><trkpt lat="41.78142814770723" lon="2.944813971813687"><ele>200.33333333333334</ele><time>2026-04-22T17:48:59Z</time></trkpt><trkpt lat="41.781358493215656" lon="2.9447449369455194"><ele>202.66666666666669</ele><time>2026-04-22T17:49:01Z</time></trkpt><trkpt lat="41.78136624665778" lon="2.944628392610109"><ele>205.0</ele><time>2026-04-22T17:49:03Z</time></trkpt><trkpt lat="41.781456118714836" lon="2.944497601748911"><ele>207.33333333333334</ele><time>2026-04-22T17:49:05Z</time></trkpt><trkpt lat="41.78149547849433" lon="2.9444136283107056"><ele>209.66666666666669</ele><time>2026-04-22T17:49:06Z</time></trkpt><trkpt lat="41.7814963433769" lon="2.944321433209441"><ele>212.0</ele><time>2026-04-22T17:49:07Z</time></trkpt><trkpt lat="41.78146886342854" lon="2.9442435574636647"><ele>210.6</ele><time>2026-04-22T17:49:08Z</time></trkpt><trkpt lat="41.781383885801354" lon="2.94412928896263"><ele>209.2</ele><time>2026-04-22T17:49:10Z</time></trkpt><trkpt lat="41.78135477511208" lon="2.944023441974047"><ele>207.8</ele><time>2026-04-22T17:49:12Z</time></trkpt><trkpt lat="41.78140294211046" lon="2.9439424499764133"><ele>206.4</ele><time>2026-04-22T17:49:14Z</time></trkpt><trkpt lat="41.781518316097596" lon="2.9439251526607255"><ele>205.0</ele><time>2026-04-22T17:49:16Z</time></trkpt><trkpt lat="41.781586240118436" lon="2.9438817664994015"><ele>204.99999999999997</ele><time>2026-04-22T17:49:17Z</time></trkpt><trkpt lat="41.78164694313184" lon="2.943804886110621"><ele>205.0</ele><time>2026-04-22T17:49:18Z</time></trkpt><trkpt lat="41.781702145043575" lon="2.943725587048035"><ele>205.0</ele><time>2026-04-22T17:49:19Z</time></trkpt><trkpt lat="41.78176676349172" lon="2.9436680473526846"><ele>205.0</ele><time>2026-04-22T17:49:20Z</time></trkpt><trkpt lat="41.78184935088044" lon="2.9436681443945005"><ele>204.99999999999997</ele><time>2026-04-22T17:49:21Z</time></trkpt><trkpt lat="41.78192632990654" lon="2.94362774070599"><ele>205.0</ele><time>2026-04-22T17:49:22Z</time></trkpt><trkpt lat="41.7819893410983" lon="2.9435493846608702"><ele>204.2</ele><time>2026-04-22T17:49:23Z</time></trkpt><trkpt lat="41.78203098057835" lon="2.943470271183317"><ele>203.4</ele><time>2026-04-22T17:49:24Z</time></trkpt><trkpt lat="41.782052081008565" lon="2.9433000440189554"><ele>202.60000000000002</ele><time>2026-04-22T17:49:26Z</time></trkpt><trkpt lat="41.78204571757885" lon="2.9431870399232887"><ele>201.8</ele><time>2026-04-22T17:49:27Z</time></trkpt><trkpt lat="41.7820324700166" lon="2.9430448227293358"><ele>201.0</ele><time>2026-04-22T17:49:28Z</time></trkpt><trkpt lat="41.78203436363599" lon="2.942918045444526"><ele>201.0</ele><time>2026-04-22T17:49:29Z</time></trkpt><trkpt lat="41.78206070611387" lon="2.9428112308652614"><ele>201.0</ele><time>2026-04-22T17:49:30Z</time></trkpt><trkpt lat="41.78210330360366" lon="2.942703137312359"><ele>201.0</ele><time>2026-04-22T17:49:31Z</time></trkpt><trkpt lat="41.78216345459695" lon="2.9426164802844665"><ele>201.0</ele><time>2026-04-22T17:49:32Z</time></trkpt><trkpt lat="41.78222202239787" lon="2.942543999386579"><ele>201.0</ele><time>2026-04-22T17:49:33Z</time></trkpt><trkpt lat="41.782273151563615" lon="2.942472958402891"><ele>201.0</ele><time>2026-04-22T17:49:34Z</time></trkpt><trkpt lat="41.78230256651952" lon="2.942395963814216"><ele>202.16666666666666</ele><time>2026-04-22T17:49:35Z</time></trkpt><trkpt lat="41.782339028815535" lon="2.942291548834549"><ele>203.33333333333331</ele><time>2026-04-22T17:49:36Z</time></trkpt><trkpt lat="41.7823771535012" lon="2.9421738228856413"><ele>204.5</ele><time>2026-04-22T17:49:37Z</time></trkpt><trkpt lat="41.782400001905415" lon="2.94207855956515"><ele>205.66666666666666</ele><time>2026-04-22T17:49:38Z</time></trkpt><trkpt lat="41.782429402649264" lon="2.941944989028117"><ele>206.83333333333331</ele><time>2026-04-22T17:49:40Z</time></trkpt><trkpt lat="41.782440817759074" lon="2.941849636319237"><ele>208.0</ele><time>2026-04-22T17:49:42Z</time></trkpt><trkpt lat="41.78241567755579" lon="2.9417522031737624"><ele>207.49999999999997</ele><time>2026-04-22T17:49:45Z</time></trkpt><trkpt lat="41.782350073680284" lon="2.9416826204983533"><ele>207.0</ele><time>2026-04-22T17:49:47Z</time></trkpt><trkpt lat="41.7822921379747" lon="2.9416464144252"><ele>206.5</ele><time>2026-04-22T17:49:48Z</time></trkpt><trkpt lat="41.7822123813177" lon="2.941614319536553"><ele>206.0</ele><time>2026-04-22T17:49:49Z</time></trkpt><trkpt lat="41.782125038965624" lon="2.94159890524499"><ele>205.49999999999997</ele><time>2026-04-22T17:49:50Z</time></trkpt><trkpt lat="41.78205124781171" lon="2.9415983250625803"><ele>205.0</ele><time>2026-04-22T17:49:51Z</time></trkpt><trkpt lat="41.78198605408931" lon="2.941604370772239"><ele>204.99999999999997</ele><time>2026-04-22T17:49:52Z</time></trkpt><trkpt lat="41.7819217610096" lon="2.9416207346981094"><ele>205.0</ele><time>2026-04-22T17:49:53Z</time></trkpt><trkpt lat="41.78185660575736" lon="2.94165606458733"><ele>205.0</ele><time>2026-04-22T17:49:54Z</time></trkpt><trkpt lat="41.78178084425882" lon="2.9417126182233284"><ele>205.0</ele><time>2026-04-22T17:49:55Z</time></trkpt><trkpt lat="41.7817162338291" lon="2.9417656356031396"><ele>204.99999999999997</ele><time>2026-04-22T17:49:56Z</time></trkpt><trkpt lat="41.781655564663794" lon="2.941794398008055"><ele>205.0</ele><time>2026-04-22T17:49:57Z</time></trkpt><trkpt lat="41.78154291298876" lon="2.9417789680136313"><ele>206.83333333333331</ele><time>2026-04-22T17:49:59Z</time></trkpt><trkpt lat="41.78146842487156" lon="2.941717281594251"><ele>208.66666666666666</ele><time>2026-04-22T17:50:01Z</time></trkpt><trkpt lat="41.78146246344292" lon="2.9416091174468204"><ele>210.5</ele><time>2026-04-22T17:50:03Z</time></trkpt><trkpt lat="41.78150489545809" lon="2.941502181859515"><ele>212.33333333333331</ele><time>2026-04-22T17:50:05Z</time></trkpt><trkpt lat="41.78155997484218" lon="2.9414333183185626"><ele>214.16666666666666</ele><time>2026-04-22T17:50:06Z</time></trkpt><trkpt lat="41.78162494962405" lon="2.9413293909223865"><ele>216.0</ele><time>2026-04-22T17:50:07Z</time></trkpt><trkpt lat="41.78168196156337" lon="2.9412039563579198"><ele>216.0</ele><time>2026-04-22T17:50:08Z</time></trkpt><trkpt lat="41.7817441141261" lon="2.941072792964375"><ele>216.00000000000003</ele><time>2026-04-22T17:50:09Z</time></trkpt><trkpt lat="41.78180642495617" lon="2.940967837867454"><ele>216.00000000000003</ele><time>2026-04-22T17:50:10Z</time></trkpt><trkpt lat="41.78186432298577" lon="2.9408928887988326"><ele>216.0</ele><time>2026-04-22T17:50:11Z</time></trkpt><trkpt lat="41.78194499602713" lon="2.9408391809141827"><ele>216.0</ele><time>2026-04-22T17:50:12Z</time></trkpt><trkpt lat="41.78202750586963" lon="2.9407701450273374"><ele>213.5</ele><time>2026-04-22T17:50:13Z</time></trkpt><trkpt lat="41.78210453360612" lon="2.9406805217182566"><ele>211.0</ele><time>2026-04-22T17:50:14Z</time></trkpt><trkpt lat="41.7821709313205" lon="2.9406010530627498"><ele>208.5</ele><time>2026-04-22T17:50:15Z</time></trkpt><trkpt lat="41.78222799433208" lon="2.940547666905456"><ele>206.0</ele><time>2026-04-22T17:50:16Z</time></trkpt><trkpt lat="41.782273603712376" lon="2.9404870871173507"><ele>203.5</ele><time>2026-04-22T17:50:17Z</time></trkpt><trkpt lat="41.782310113321174" lon="2.940411809431084"><ele>201.0</ele><time>2026-04-22T17:50:18Z</time></trkpt><trkpt lat="41.78234822116016" lon="2.94033051231628"><ele>201.0</ele><time>2026-04-22T17:50:19Z</time></trkpt><trkpt lat="41.782373424877434" lon="2.940232023419707"><ele>201.0</ele><time>2026-04-22T17:50:20Z</time></trkpt><trkpt lat="41.782391072610075" lon="2.9401238578284516"><ele>201.0</ele><time>2026-04-22T17:50:21Z</time></trkpt><trkpt lat="41.782407008413756" lon="2.940024173277698"><ele>201.0</ele><time>2026-04-22T17:50:22Z</time></trkpt><trkpt lat="41.78242087484475" lon="2.939931161718355"><ele>201.0</ele><time>2026-04-22T17:50:23Z</time></trkpt><trkpt lat="41.78244196531354" lon="2.9397683777929697"><ele>201.0</ele><time>2026-04-22T17:50:25Z</time></trkpt><trkpt lat="41.7824459381442" lon="2.939630648815573"><ele>200.16666666666666</ele><time>2026-04-22T17:50:27Z</time></trkpt><trkpt lat="41.78240668659731" lon="2.9395096960555236"><ele>199.33333333333331</ele><time>2026-04-22T17:50:29Z</time></trkpt><trkpt lat="41.78240862876041" lon="2.9393980049738917"><ele>198.5</ele><time>2026-04-22T17:50:31Z</time></trkpt><trkpt lat="41.78247114676002" lon="2.9393192150113756"><ele>197.66666666666666</ele><time>2026-04-22T17:50:33Z</time></trkpt><trkpt lat="41.782573810481885" lon="2.9393307370821824"><ele>196.83333333333331</ele><time>2026-04-22T17:50:35Z</time></trkpt><trkpt lat="41.782649018826426" lon="2.9393628931379454"><ele>196.0</ele><time>2026-04-22T17:50:36Z</time></trkpt><trkpt lat="41.78274322874468" lon="2.9394051092818194"><ele>196.0</ele><time>2026-04-22T17:50:37Z</time></trkpt><trkpt lat="41.78283296598839" lon="2.9394231598139626"><ele>196.0</ele><time>2026-04-22T17:50:38Z</time></trkpt><trkpt lat="41.78291348279516" lon="2.939428222204348"><ele>196.0</ele><time>2026-04-22T17:50:39Z</time></trkpt><trkpt lat="41.782985594425746" lon="2.9394340585128274"><ele>196.0</ele><time>2026-04-22T17:50:40Z</time></trkpt><trkpt lat="41.78310146372336" lon="2.939403322965233"><ele>196.0</ele><time>2026-04-22T17:50:42Z</time></trkpt><trkpt lat="41.78319114017217" lon="2.939319655978575"><ele>195.99999999999997</ele><time>2026-04-22T17:50:44Z</time></trkpt><trkpt lat="41.78323102264458" lon="2.9392452068387196"><ele>196.0</ele><time>2026-04-22T17:50:45Z</time></trkpt><trkpt lat="41.783272350688826" lon="2.939095388782874"><ele>196.0</ele><time>2026-04-22T17:50:47Z</time></trkpt><trkpt lat="41.78327142538628" lon="2.938948439572664"><ele>196.0</ele><time>2026-04-22T17:50:49Z</time></trkpt><trkpt lat="41.78326320470811" lon="2.9388494134471568"><ele>195.99999999999997</ele><time>2026-04-22T17:50:50Z</time></trkpt><trkpt lat="41.783255213534325" lon="2.9387563948851274"><ele>196.0</ele><time>2026-04-22T17:50:51Z</time></trkpt><trkpt lat="41.783269885104616" lon="2.938632646179428"><ele>196.16666666666666</ele><time>2026-04-22T17:50:53Z</time></trkpt><trkpt lat="41.783319479224005" lon="2.938555241717428"><ele>196.33333333333331</ele><time>2026-04-22T17:50:55Z</time></trkpt><trkpt lat="41.783380457111335" lon="2.938515681489495"><ele>196.5</ele><time>2026-04-22T17:50:56Z</time></trkpt><trkpt lat="41.78346435798878" lon="2.9384764197743944"><ele>196.66666666666669</ele><time>2026-04-22T17:50:57Z</time></trkpt><trkpt lat="41.78354491642328" lon="2.938437459661214"><ele>196.83333333333334</ele><time>2026-04-22T17:50:58Z</time></trkpt><trkpt lat="41.783623170229056" lon="2.9383505240868413"><ele>197.0</ele><time>2026-04-22T17:51:00Z</time></trkpt><trkpt lat="41.78366511467107" lon="2.9382091175259535"><ele>197.00000000000003</ele><time>2026-04-22T17:51:02Z</time></trkpt><trkpt lat="41.78366055084421" lon="2.9381206348777784"><ele>197.0</ele><time>2026-04-22T17:51:03Z</time></trkpt><trkpt lat="41.78364182756233" lon="2.9380223263902603"><ele>197.0</ele><time>2026-04-22T17:51:04Z</time></trkpt><trkpt lat="41.78361390527576" lon="2.937937901349893"><ele>197.0</ele><time>2026-04-22T17:51:05Z</time></trkpt><trkpt lat="41.783581905489136" lon="2.937862258646876"><ele>197.00000000000003</ele><time>2026-04-22T17:51:06Z</time></trkpt><trkpt lat="41.78355807595512" lon="2.937780466112581"><ele>197.0</ele><time>2026-04-22T17:51:07Z</time></trkpt><trkpt lat="41.78356148446947" lon="2.937600230644231"><ele>196.83333333333334</ele><time>2026-04-22T17:51:09Z</time></trkpt><trkpt lat="41.78359003668377" lon="2.937500560199339"><ele>196.66666666666669</ele><time>2026-04-22T17:51:10Z</time></trkpt><trkpt lat="41.78362979596146" lon="2.9374111686700295"><ele>196.5</ele><time>2026-04-22T17:51:11Z</time></trkpt><trkpt lat="41.78367426498735" lon="2.937309551132071"><ele>196.33333333333331</ele><time>2026-04-22T17:51:12Z</time></trkpt><trkpt lat="41.783714089175234" lon="2.9372087437607366"><ele>196.16666666666666</ele><time>2026-04-22T17:51:13Z</time></trkpt><trkpt lat="41.7837410864613" lon="2.937119898995794"><ele>196.0</ele><time>2026-04-22T17:51:14Z</time></trkpt><trkpt lat="41.78376026566942" lon="2.937027652434981"><ele>196.0</ele><time>2026-04-22T17:51:15Z</time></trkpt><trkpt lat="41.78377756369066" lon="2.9369252825824064"><ele>196.0</ele><time>2026-04-22T17:51:16Z</time></trkpt><trkpt lat="41.783788779011246" lon="2.9368302213909683"><ele>196.0</ele><time>2026-04-22T17:51:17Z</time></trkpt><trkpt lat="41.78380004511977" lon="2.9367352451936"><ele>196.0</ele><time>2026-04-22T17:51:18Z</time></trkpt><trkpt lat="41.78381271366044" lon="2.936643249104207"><ele>196.0</ele><time>2026-04-22T17:51:19Z</time></trkpt><trkpt lat="41.783832574157124" lon="2.936555176108984"><ele>196.0</ele><time>2026-04-22T17:51:20Z</time></trkpt><trkpt lat="41.783868511711255" lon="2.936461319517494"><ele>196.0</ele><time>2026-04-22T17:51:21Z</time></trkpt><trkpt lat="41.78392534953778" lon="2.9363660913804974"><ele>195.8</ele><time>2026-04-22T17:51:23Z</time></trkpt><trkpt lat="41.78396971517704" lon="2.9362647172122096"><ele>195.60000000000002</ele><time>2026-04-22T17:51:25Z</time></trkpt><trkpt lat="41.784023692497" lon="2.9361742898768477"><ele>195.4</ele><time>2026-04-22T17:51:26Z</time></trkpt><trkpt lat="41.78407623327765" lon="2.9360893710489693"><ele>195.2</ele><time>2026-04-22T17:51:27Z</time></trkpt><trkpt lat="41.78411953819711" lon="2.9359224745287085"><ele>195.0</ele><time>2026-04-22T17:51:29Z</time></trkpt><trkpt lat="41.78412692150476" lon="2.935812484422121"><ele>195.0</ele><time>2026-04-22T17:51:30Z</time></trkpt><trkpt lat="41.78413143946009" lon="2.935701322838979"><ele>195.0</ele><time>2026-04-22T17:51:31Z</time></trkpt><trkpt lat="41.78413651419782" lon="2.935596324814754"><ele>195.0</ele><time>2026-04-22T17:51:32Z</time></trkpt><trkpt lat="41.78414861293614" lon="2.9354950817166285"><ele>195.0</ele><time>2026-04-22T17:51:33Z</time></trkpt><trkpt lat="41.784176534022265" lon="2.9353963250122"><ele>195.0</ele><time>2026-04-22T17:51:34Z</time></trkpt><trkpt lat="41.78419744311103" lon="2.9353129596484604"><ele>195.0</ele><time>2026-04-22T17:51:35Z</time></trkpt><trkpt lat="41.78421384451852" lon="2.935178911229612"><ele>195.0</ele><time>2026-04-22T17:51:37Z</time></trkpt><trkpt lat="41.784199005777715" lon="2.9350598350276855"><ele>195.0</ele><time>2026-04-22T17:51:39Z</time></trkpt><trkpt lat="41.78416163863056" lon="2.934959927426089"><ele>195.0</ele><time>2026-04-22T17:51:41Z</time></trkpt><trkpt lat="41.78415085148082" lon="2.9348690142531177"><ele>195.0</ele><time>2026-04-22T17:51:43Z</time></trkpt><trkpt lat="41.784204198345165" lon="2.934801355182805"><ele>195.0</ele><time>2026-04-22T17:51:45Z</time></trkpt><trkpt lat="41.784334070146535" lon="2.9348493235645483"><ele>192.6</ele><time>2026-04-22T17:51:47Z</time></trkpt><trkpt lat="41.7844134557922" lon="2.934866009974151"><ele>190.2</ele><time>2026-04-22T17:51:48Z</time></trkpt><trkpt lat="41.784482595093756" lon="2.934837765059504"><ele>187.8</ele><time>2026-04-22T17:51:49Z</time></trkpt><trkpt lat="41.78455271233354" lon="2.934769180894828"><ele>185.4</ele><time>2026-04-22T17:51:50Z</time></trkpt><trkpt lat="41.78462319280354" lon="2.934669261341533"><ele>183.0</ele><time>2026-04-22T17:51:51Z</time></trkpt><trkpt lat="41.784686118233175" lon="2.934546301298302"><ele>183.0</ele><time>2026-04-22T17:51:52Z</time></trkpt><trkpt lat="41.784745239160436" lon="2.9344277232432976"><ele>183.0</ele><time>2026-04-22T17:51:53Z</time></trkpt><trkpt lat="41.78479896331733" lon="2.934341643201381"><ele>183.0</ele><time>2026-04-22T17:51:54Z</time></trkpt><trkpt lat="41.78486993262914" lon="2.9342692422194867"><ele>183.0</ele><time>2026-04-22T17:51:55Z</time></trkpt><trkpt lat="41.78494614557212" lon="2.9341971425298246"><ele>183.0</ele><time>2026-04-22T17:51:56Z</time></trkpt><trkpt lat="41.78501494060627" lon="2.9341398913343015"><ele>182.0</ele><time>2026-04-22T17:51:57Z</time></trkpt><trkpt lat="41.78508260034279" lon="2.934084139868599"><ele>181.0</ele><time>2026-04-22T17:51:58Z</time></trkpt><trkpt lat="41.78514570301776" lon="2.934011605190008"><ele>180.0</ele><time>2026-04-22T17:51:59Z</time></trkpt><trkpt lat="41.78520659695591" lon="2.933919438626427"><ele>179.0</ele><time>2026-04-22T17:52:00Z</time></trkpt><trkpt lat="41.785274419684605" lon="2.9338007425370067"><ele>178.0</ele><time>2026-04-22T17:52:01Z</time></trkpt><trkpt lat="41.78534625991411" lon="2.9336663016829947"><ele>178.0</ele><time>2026-04-22T17:52:02Z</time></trkpt><trkpt lat="41.78542375388322" lon="2.9335196174249165"><ele>178.0</ele><time>2026-04-22T17:52:03Z</time></trkpt><trkpt lat="41.78548887256065" lon="2.9333989891806667"><ele>178.0</ele><time>2026-04-22T17:52:04Z</time></trkpt><trkpt lat="41.78553846748967" lon="2.9332973947523318"><ele>178.0</ele><time>2026-04-22T17:52:05Z</time></trkpt><trkpt lat="41.785587589780384" lon="2.933213783697799"><ele>178.0</ele><time>2026-04-22T17:52:06Z</time></trkpt><trkpt lat="41.78565531632113" lon="2.933116331425211"><ele>179.5</ele><time>2026-04-22T17:52:07Z</time></trkpt><trkpt lat="41.78572602048326" lon="2.933029365630842"><ele>181.0</ele><time>2026-04-22T17:52:08Z</time></trkpt><trkpt lat="41.785800054633135" lon="2.9329403181150773"><ele>182.5</ele><time>2026-04-22T17:52:09Z</time></trkpt><trkpt lat="41.785864250702126" lon="2.9328689257291862"><ele>184.0</ele><time>2026-04-22T17:52:10Z</time></trkpt><trkpt lat="41.78592591611491" lon="2.932798779812398"><ele>185.5</ele><time>2026-04-22T17:52:11Z</time></trkpt><trkpt lat="41.78597633993547" lon="2.932735919205601"><ele>187.0</ele><time>2026-04-22T17:52:12Z</time></trkpt><trkpt lat="41.78601252517263" lon="2.9326666095188743"><ele>188.39999999999998</ele><time>2026-04-22T17:52:13Z</time></trkpt><trkpt lat="41.78603929692794" lon="2.9325070714282195"><ele>189.79999999999998</ele><time>2026-04-22T17:52:15Z</time></trkpt><trkpt lat="41.78601405158381" lon="2.9324282127969377"><ele>191.2</ele><time>2026-04-22T17:52:16Z</time></trkpt><trkpt lat="41.78596900835745" lon="2.9323383579446904"><ele>192.6</ele><time>2026-04-22T17:52:17Z</time></trkpt><trkpt lat="41.78591074498601" lon="2.9322232133145754"><ele>194.0</ele><time>2026-04-22T17:52:18Z</time></trkpt><trkpt lat="41.785852784284614" lon="2.9321074949646637"><ele>194.0</ele><time>2026-04-22T17:52:19Z</time></trkpt><trkpt lat="41.785804114826135" lon="2.9319951969820868"><ele>194.0</ele><time>2026-04-22T17:52:20Z</time></trkpt><trkpt lat="41.785772050942725" lon="2.931899028856988"><ele>194.0</ele><time>2026-04-22T17:52:21Z</time></trkpt><trkpt lat="41.78569113455599" lon="2.931762237262522"><ele>194.0</ele><time>2026-04-22T17:52:23Z</time></trkpt><trkpt lat="41.785631008887584" lon="2.931726409181194"><ele>194.0</ele><time>2026-04-22T17:52:24Z</time></trkpt><trkpt lat="41.785516517763725" lon="2.9317344129458185"><ele>194.0</ele><time>2026-04-22T17:52:26Z</time></trkpt><trkpt lat="41.78536583803719" lon="2.9317612367453405"><ele>194.0</ele><time>2026-04-22T17:52:28Z</time></trkpt><trkpt lat="41.78526964006665" lon="2.9317941843242483"><ele>194.0</ele><time>2026-04-22T17:52:29Z</time></trkpt><trkpt lat="41.78518218009551" lon="2.9318336395086924"><ele>194.0</ele><time>2026-04-22T17:52:30Z</time></trkpt><trkpt lat="41.785120628053484" lon="2.931884518815637"><ele>194.0</ele><time>2026-04-22T17:52:31Z</time></trkpt><trkpt lat="41.78501930041126" lon="2.9319792269360203"><ele>194.6</ele><time>2026-04-22T17:52:33Z</time></trkpt><trkpt lat="41.78492251183297" lon="2.9319539886682926"><ele>195.2</ele><time>2026-04-22T17:52:35Z</time></trkpt><trkpt lat="41.78488475982363" lon="2.9318369424582693"><ele>195.79999999999998</ele><time>2026-04-22T17:52:37Z</time></trkpt><trkpt lat="41.78491126519381" lon="2.931710163250037"><ele>196.39999999999998</ele><time>2026-04-22T17:52:39Z</time></trkpt><trkpt lat="41.78494969260429" lon="2.9316353770400476"><ele>197.0</ele><time>2026-04-22T17:52:40Z</time></trkpt><trkpt lat="41.78504655160619" lon="2.9315101074103853"><ele>197.00000000000003</ele><time>2026-04-22T17:52:42Z</time></trkpt><trkpt lat="41.785094031748606" lon="2.9314273667316844"><ele>197.0</ele><time>2026-04-22T17:52:43Z</time></trkpt><trkpt lat="41.78515491368209" lon="2.931338585199328"><ele>197.0</ele><time>2026-04-22T17:52:44Z</time></trkpt><trkpt lat="41.78521425452876" lon="2.9312468408029413"><ele>197.0</ele><time>2026-04-22T17:52:45Z</time></trkpt><trkpt lat="41.78525378881603" lon="2.931159689121765"><ele>197.00000000000003</ele><time>2026-04-22T17:52:46Z</time></trkpt><trkpt lat="41.78528179984569" lon="2.9310731177991975"><ele>197.0</ele><time>2026-04-22T17:52:47Z</time></trkpt><trkpt lat="41.78529172453862" lon="2.9309842474045147"><ele>195.50000000000003</ele><time>2026-04-22T17:52:48Z</time></trkpt><trkpt lat="41.78529437454254" lon="2.9308784152484657"><ele>194.0</ele><time>2026-04-22T17:52:49Z</time></trkpt><trkpt lat="41.78528397179181" lon="2.9307809673007084"><ele>192.5</ele><time>2026-04-22T17:52:50Z</time></trkpt><trkpt lat="41.7852717405837" lon="2.930697327174822"><ele>191.0</ele><time>2026-04-22T17:52:51Z</time></trkpt><trkpt lat="41.78525251813191" lon="2.930553898628702"><ele>189.5</ele><time>2026-04-22T17:52:53Z</time></trkpt><trkpt lat="41.78522811516959" lon="2.9304091509394574"><ele>188.0</ele><time>2026-04-22T17:52:55Z</time></trkpt><trkpt lat="41.785189214474016" lon="2.9303162590137863"><ele>188.0</ele><time>2026-04-22T17:52:57Z</time></trkpt></trkseg></trk></gpx>